createdAt,value
2023-04-16T00:01:02.779Z,100230.27
2023-04-16T00:02:05.737Z,100231.00
2023-04-16T00:03:08.263Z,100233.63
2023-04-16T00:04:13.968Z,100231.00
2023-04-16T00:05:16.981Z,100231.00
2023-04-16T00:06:19.537Z,100228.16
2023-04-16T00:07:21.760Z,100229.92
2023-04-16T00:08:24.221Z,100232.91
2023-04-16T00:09:26.561Z,100227.19
2023-04-16T00:10:29.042Z,100227.19
2023-04-16T00:11:31.277Z,100233.69
2023-04-16T00:12:33.523Z,100240.51
2023-04-16T00:13:35.977Z,100235.54
2023-04-16T00:14:38.344Z,100234.13
2023-04-16T00:15:40.966Z,100233.38
2023-04-16T00:16:43.434Z,100244.61
2023-04-16T00:17:46.962Z,100235.69
2023-04-16T00:18:49.525Z,100233.00
2023-04-16T00:19:51.619Z,100235.39
2023-04-16T00:20:54.159Z,100239.64
2023-04-16T00:21:56.494Z,100242.03
2023-04-16T00:22:58.665Z,100240.42
2023-04-16T00:24:01.006Z,100238.80
2023-04-16T00:25:03.835Z,100238.66
2023-04-16T00:26:08.075Z,100238.66
2023-04-16T00:27:10.367Z,100235.33
2023-04-16T00:28:12.720Z,100243.05
2023-04-16T00:29:15.012Z,100240.42
2023-04-16T00:30:17.491Z,100236.80
2023-04-16T00:31:29.465Z,100234.16
2023-04-16T00:32:32.452Z,100237.69
2023-04-16T00:33:34.773Z,100240.27
2023-04-16T00:34:37.056Z,100232.27
2023-04-16T00:35:40.537Z,100234.13
2023-04-16T00:36:43.167Z,100231.48
2023-04-16T00:37:45.702Z,100237.30
2023-04-16T00:38:49.081Z,100238.95
2023-04-16T00:39:51.482Z,100233.89
2023-04-16T00:40:53.967Z,100233.09
2023-04-16T00:41:56.280Z,100232.41
2023-04-16T00:42:58.517Z,100235.97
2023-04-16T00:44:00.960Z,100244.66
2023-04-16T00:45:05.049Z,100236.30
2023-04-16T00:46:08.276Z,100245.72
2023-04-16T00:47:11.341Z,100244.98
2023-04-16T00:48:13.601Z,100239.72
2023-04-16T00:49:16.240Z,100243.05
2023-04-16T00:50:18.800Z,100237.92
2023-04-16T00:51:22.403Z,100240.60
2023-04-16T00:52:26.095Z,100244.80
2023-04-16T00:53:28.777Z,100243.73
2023-04-16T00:54:31.552Z,100244.52
2023-04-16T00:55:34.212Z,100243.59
2023-04-16T00:56:38.660Z,100248.13
2023-04-16T00:57:40.890Z,100242.95
2023-04-16T00:58:43.220Z,100251.73
2023-04-16T00:59:45.715Z,100249.97
2023-04-16T01:00:48.171Z,100241.98
2023-04-16T01:01:51.686Z,100234.27
2023-04-16T01:02:55.315Z,100234.81
2023-04-16T01:03:58.590Z,100241.54
2023-04-16T01:05:03.938Z,100238.23
2023-04-16T01:06:07.459Z,100237.53
2023-04-16T01:07:09.674Z,100240.86
2023-04-16T01:08:18.104Z,100238.95
2023-04-16T01:09:20.628Z,100242.27
2023-04-16T01:10:22.889Z,100248.91
2023-04-16T01:11:25.597Z,100245.14
2023-04-16T01:12:28.322Z,100241.24
2023-04-16T01:13:30.668Z,100248.27
2023-04-16T01:14:34.787Z,100247.73
2023-04-16T01:15:38.251Z,100240.47
2023-04-16T01:16:41.157Z,100240.27
2023-04-16T01:17:46.183Z,100241.83
2023-04-16T01:18:48.950Z,100252.38
2023-04-16T01:19:51.111Z,100253.46
2023-04-16T01:20:53.534Z,100246.83
2023-04-16T01:21:55.657Z,100253.70
2023-04-16T01:22:57.931Z,100245.74
2023-04-16T01:24:04.061Z,100251.94
2023-04-16T01:25:06.509Z,100251.34
2023-04-16T01:26:09.119Z,100252.97
2023-04-16T01:27:11.265Z,100247.50
2023-04-16T01:28:13.970Z,100251.06
2023-04-16T01:29:16.811Z,100250.28
2023-04-16T01:30:19.130Z,100249.64
2023-04-16T01:31:23.304Z,100238.56
2023-04-16T01:32:28.047Z,100246.50
2023-04-16T01:33:30.437Z,100244.76
2023-04-16T01:34:32.556Z,100241.20
2023-04-16T01:35:34.780Z,100237.77
2023-04-16T01:36:37.142Z,100237.73
2023-04-16T01:37:39.459Z,100244.47
2023-04-16T01:38:41.905Z,100238.27
2023-04-16T01:39:44.126Z,100237.59
2023-04-16T01:40:46.382Z,100239.63
2023-04-16T01:41:48.611Z,100240.45
2023-04-16T01:42:51.154Z,100245.53
2023-04-16T01:43:53.398Z,100237.73
2023-04-16T01:44:55.612Z,100241.94
2023-04-16T01:46:14.820Z,100241.70
2023-04-16T01:47:17.931Z,100246.17
2023-04-16T01:48:20.305Z,100239.20
2023-04-16T01:49:23.351Z,100236.77
2023-04-16T01:50:26.157Z,100243.96
2023-04-16T01:51:28.577Z,100243.84
2023-04-16T01:52:30.823Z,100237.78
2023-04-16T01:53:35.139Z,100246.31
2023-04-16T01:54:38.137Z,100240.31
2023-04-16T01:55:40.708Z,100238.55
2023-04-16T01:56:44.292Z,100243.87
2023-04-16T01:57:47.179Z,100246.37
2023-04-16T01:58:49.875Z,100238.31
2023-04-16T01:59:53.476Z,100244.19
2023-04-16T02:00:57.084Z,100242.48
2023-04-16T02:02:03.291Z,100242.38
2023-04-16T02:03:05.836Z,100248.14
2023-04-16T02:04:09.366Z,100244.72
2023-04-16T02:05:11.870Z,100237.73
2023-04-16T02:06:15.001Z,100247.36
2023-04-16T02:07:17.221Z,100242.91
2023-04-16T02:08:19.462Z,100250.47
2023-04-16T02:09:23.705Z,100248.23
2023-04-16T02:10:26.408Z,100246.56
2023-04-16T02:11:29.136Z,100250.72
2023-04-16T02:12:31.827Z,100244.81
2023-04-16T02:13:34.656Z,100243.30
2023-04-16T02:14:37.401Z,100250.92
2023-04-16T02:15:39.945Z,100252.68
2023-04-16T02:16:42.495Z,100251.74
2023-04-16T02:17:48.342Z,100250.37
2023-04-16T02:18:50.795Z,100246.73
2023-04-16T02:19:55.982Z,100244.91
2023-04-16T02:21:01.672Z,100249.50
2023-04-16T02:22:04.175Z,100245.25
2023-04-16T02:23:08.385Z,100245.89
2023-04-16T02:24:11.779Z,100256.09
2023-04-16T02:25:13.991Z,100256.92
2023-04-16T02:26:16.934Z,100257.66
2023-04-16T02:27:19.299Z,100253.21
2023-04-16T02:28:23.578Z,100253.16
2023-04-16T02:29:26.045Z,100254.28
2023-04-16T02:30:31.246Z,100261.27
2023-04-16T02:31:33.717Z,100259.42
2023-04-16T02:32:35.878Z,100255.95
2023-04-16T02:33:38.689Z,100264.45
2023-04-16T02:34:42.449Z,100264.45
2023-04-16T02:35:48.030Z,100259.46
2023-04-16T02:36:50.455Z,100257.71
2023-04-16T02:37:52.801Z,100262.88
2023-04-16T02:38:55.448Z,100269.62
2023-04-16T02:39:58.239Z,100262.62
2023-04-16T02:41:00.844Z,100271.03
2023-04-16T02:42:04.044Z,100266.63
2023-04-16T02:43:06.284Z,100266.78
2023-04-16T02:44:08.697Z,100265.95
2023-04-16T02:45:11.323Z,100266.09
2023-04-16T02:46:15.019Z,100265.08
2023-04-16T02:47:17.479Z,100267.50
2023-04-16T02:48:19.863Z,100265.06
2023-04-16T02:49:22.211Z,100264.34
2023-04-16T02:50:24.745Z,100263.56
2023-04-16T02:51:27.074Z,100268.70
2023-04-16T02:52:29.401Z,100271.18
2023-04-16T02:53:31.537Z,100273.92
2023-04-16T02:54:33.863Z,100280.06
2023-04-16T02:55:36.400Z,100273.03
2023-04-16T02:56:38.557Z,100273.92
2023-04-16T02:57:41.796Z,100266.16
2023-04-16T02:58:44.634Z,100266.88
2023-04-16T02:59:47.497Z,100275.63
2023-04-16T03:00:50.731Z,100273.88
2023-04-16T03:01:53.972Z,100274.80
2023-04-16T03:02:56.688Z,100272.21
2023-04-16T03:03:59.329Z,100277.47
2023-04-16T03:05:02.546Z,100279.88
2023-04-16T03:06:05.180Z,100282.46
2023-04-16T03:07:08.496Z,100281.63
2023-04-16T03:08:12.497Z,100279.71
2023-04-16T03:09:14.775Z,100279.71
2023-04-16T03:10:17.523Z,100280.61
2023-04-16T03:11:20.444Z,100280.20
2023-04-16T03:12:22.959Z,100282.81
2023-04-16T03:13:25.280Z,100285.38
2023-04-16T03:14:27.523Z,100287.87
2023-04-16T03:15:30.596Z,100296.66
2023-04-16T03:16:33.362Z,100285.38
2023-04-16T03:17:35.757Z,100286.86
2023-04-16T03:18:38.054Z,100295.25
2023-04-16T03:19:40.357Z,100291.98
2023-04-16T03:20:43.126Z,100297.06
2023-04-16T03:21:47.044Z,100298.18
2023-04-16T03:22:51.857Z,100292.27
2023-04-16T03:23:55.568Z,100293.89
2023-04-16T03:24:58.039Z,100302.63
2023-04-16T03:26:00.286Z,100296.62
2023-04-16T03:27:03.534Z,100311.95
2023-04-16T03:28:06.364Z,100297.95
2023-04-16T03:29:09.081Z,100300.77
2023-04-16T03:30:13.749Z,100297.16
2023-04-16T03:31:16.429Z,100306.48
2023-04-16T03:32:18.847Z,100302.04
2023-04-16T03:33:22.079Z,100302.82
2023-04-16T03:34:24.575Z,100312.19
2023-04-16T03:35:27.384Z,100305.45
2023-04-16T03:36:30.856Z,100310.78
2023-04-16T03:37:34.965Z,100296.23
2023-04-16T03:38:37.469Z,100307.42
2023-04-16T03:39:39.910Z,100303.02
2023-04-16T03:40:42.158Z,100302.25
2023-04-16T03:41:44.794Z,100307.01
2023-04-16T03:42:47.031Z,100306.92
2023-04-16T03:43:49.664Z,100299.84
2023-04-16T03:44:53.107Z,100301.46
2023-04-16T03:45:56.841Z,100305.84
2023-04-16T03:47:00.338Z,100301.51
2023-04-16T03:48:02.650Z,100303.17
2023-04-16T03:49:05.768Z,100301.46
2023-04-16T03:50:11.011Z,100314.50
2023-04-16T03:51:13.976Z,100308.44
2023-04-16T03:52:17.480Z,100312.64
2023-04-16T03:53:19.994Z,100313.75
2023-04-16T03:54:23.152Z,100316.16
2023-04-16T03:55:29.368Z,100307.51
2023-04-16T03:56:32.927Z,100313.47
2023-04-16T03:57:35.186Z,100321.38
2023-04-16T03:58:39.354Z,100323.88
2023-04-16T03:59:43.448Z,100321.25
2023-04-16T04:00:45.934Z,100323.82
2023-04-16T04:01:48.914Z,100328.95
2023-04-16T04:02:51.580Z,100319.42
2023-04-16T04:03:55.009Z,100323.72
2023-04-16T04:04:57.255Z,100327.84
2023-04-16T04:05:59.612Z,100328.95
2023-04-16T04:07:04.279Z,100321.97
2023-04-16T04:08:07.441Z,100324.36
2023-04-16T04:09:11.263Z,100331.94
2023-04-16T04:10:15.072Z,100330.75
2023-04-16T04:11:17.597Z,100322.00
2023-04-16T04:12:22.180Z,100325.72
2023-04-16T04:13:24.851Z,100323.80
2023-04-16T04:14:27.466Z,100326.23
2023-04-16T04:15:29.996Z,100325.36
2023-04-16T04:16:32.624Z,100325.20
2023-04-16T04:17:35.838Z,100325.20
2023-04-16T04:18:44.319Z,100329.41
2023-04-16T04:19:54.232Z,100320.08
2023-04-16T04:20:48.790Z,100324.02
2023-04-16T04:21:53.010Z,100317.22
2023-04-16T04:22:55.257Z,100319.82
2023-04-16T04:23:59.839Z,100322.40
2023-04-16T04:25:04.915Z,100325.83
2023-04-16T04:26:09.313Z,100323.23
2023-04-16T04:27:11.940Z,100327.34
2023-04-16T04:28:14.396Z,100326.08
2023-04-16T04:29:16.546Z,100323.82
2023-04-16T04:30:18.987Z,100323.67
2023-04-16T04:31:21.232Z,100326.02
2023-04-16T04:32:23.486Z,100329.19
2023-04-16T04:33:25.902Z,100325.91
2023-04-16T04:34:28.055Z,100328.56
2023-04-16T04:35:31.248Z,100330.91
2023-04-16T04:36:34.251Z,100322.45
2023-04-16T04:37:36.698Z,100327.78
2023-04-16T04:38:40.858Z,100328.13
2023-04-16T04:39:43.103Z,100328.64
2023-04-16T04:40:52.701Z,100330.39
2023-04-16T04:41:56.772Z,100334.56
2023-04-16T04:42:59.083Z,100326.69
2023-04-16T04:44:01.510Z,100328.41
2023-04-16T04:45:05.668Z,100331.19
2023-04-16T04:46:11.059Z,100325.00
2023-04-16T04:47:14.847Z,100326.52
2023-04-16T04:48:18.565Z,100325.86
2023-04-16T04:49:21.349Z,100323.28
2023-04-16T04:50:23.491Z,100326.66
2023-04-16T04:51:26.515Z,100321.48
2023-04-16T04:52:28.700Z,100329.92
2023-04-16T04:53:30.901Z,100329.98
2023-04-16T04:54:33.126Z,100331.59
2023-04-16T04:55:39.504Z,100329.78
2023-04-16T04:56:43.840Z,100327.48
2023-04-16T04:57:46.155Z,100341.17
2023-04-16T04:58:50.661Z,100332.52
2023-04-16T04:59:54.668Z,100334.08
2023-04-16T05:00:57.393Z,100338.48
2023-04-16T05:01:59.886Z,100335.21
2023-04-16T05:03:04.180Z,100332.47
2023-04-16T05:04:06.550Z,100330.95
2023-04-16T05:05:09.300Z,100336.22
2023-04-16T05:06:12.244Z,100341.95
2023-04-16T05:07:15.636Z,100339.99
2023-04-16T05:08:18.057Z,100338.28
2023-04-16T05:09:20.552Z,100337.46
2023-04-16T05:10:23.289Z,100331.50
2023-04-16T05:11:26.757Z,100341.84
2023-04-16T05:12:29.127Z,100341.61
2023-04-16T05:13:31.394Z,100333.74
2023-04-16T05:14:34.332Z,100334.38
2023-04-16T05:15:37.213Z,100337.64
2023-04-16T05:16:39.717Z,100335.93
2023-04-16T05:17:42.119Z,100332.41
2023-04-16T05:18:44.194Z,100334.31
2023-04-16T05:19:48.302Z,100331.58
2023-04-16T05:20:50.792Z,100340.90
2023-04-16T05:21:54.265Z,100341.47
2023-04-16T05:22:56.622Z,100338.82
2023-04-16T05:23:59.411Z,100339.70
2023-04-16T05:25:01.798Z,100342.31
2023-04-16T05:26:04.269Z,100338.47
2023-04-16T05:27:06.591Z,100346.14
2023-04-16T05:28:09.768Z,100345.31
2023-04-16T05:29:12.551Z,100335.93
2023-04-16T05:30:15.798Z,100349.55
2023-04-16T05:31:18.625Z,100341.67
2023-04-16T05:32:21.713Z,100344.52
2023-04-16T05:33:24.701Z,100343.59
2023-04-16T05:34:27.350Z,100345.47
2023-04-16T05:35:29.613Z,100339.19
2023-04-16T05:36:32.257Z,100339.19
2023-04-16T05:37:34.698Z,100343.66
2023-04-16T05:38:36.711Z,100344.52
2023-04-16T05:39:39.152Z,100348.94
2023-04-16T05:40:41.827Z,100350.00
2023-04-16T05:41:44.167Z,100336.81
2023-04-16T05:42:46.464Z,100351.26
2023-04-16T05:43:49.213Z,100350.44
2023-04-16T05:44:52.471Z,100351.17
2023-04-16T05:45:54.786Z,100347.54
2023-04-16T05:46:57.139Z,100343.33
2023-04-16T05:47:59.428Z,100358.87
2023-04-16T05:49:01.638Z,100356.19
2023-04-16T05:50:04.067Z,100353.45
2023-04-16T05:51:06.518Z,100343.39
2023-04-16T05:52:09.105Z,100349.41
2023-04-16T05:53:13.326Z,100353.70
2023-04-16T05:54:15.498Z,100352.97
2023-04-16T05:55:18.692Z,100358.01
2023-04-16T05:56:21.977Z,100344.02
2023-04-16T05:57:24.614Z,100352.25
2023-04-16T05:58:26.746Z,100350.73
2023-04-16T05:59:31.186Z,100365.39
2023-04-16T06:00:34.072Z,100360.27
2023-04-16T06:01:36.532Z,100371.59
2023-04-16T06:02:39.646Z,100367.45
2023-04-16T06:03:42.181Z,100363.11
2023-04-16T06:04:46.745Z,100360.47
2023-04-16T06:05:49.365Z,100372.63
2023-04-16T06:06:51.974Z,100370.67
2023-04-16T06:07:55.923Z,100373.36
2023-04-16T06:08:59.359Z,100367.16
2023-04-16T06:10:01.885Z,100364.09
2023-04-16T06:11:05.071Z,100364.09
2023-04-16T06:12:07.573Z,100374.97
2023-04-16T06:13:11.300Z,100371.61
2023-04-16T06:14:14.734Z,100378.59
2023-04-16T06:15:16.992Z,100379.70
2023-04-16T06:16:19.159Z,100375.37
2023-04-16T06:17:22.074Z,100377.02
2023-04-16T06:18:24.701Z,100384.69
2023-04-16T06:19:26.947Z,100380.39
2023-04-16T06:20:30.021Z,100388.06
2023-04-16T06:21:33.112Z,100386.26
2023-04-16T06:22:35.616Z,100381.19
2023-04-16T06:23:37.853Z,100384.36
2023-04-16T06:24:40.507Z,100387.88
2023-04-16T06:25:42.768Z,100383.43
2023-04-16T06:26:45.097Z,100386.99
2023-04-16T06:27:47.351Z,100392.95
2023-04-16T06:28:49.901Z,100387.09
2023-04-16T06:29:54.471Z,100388.66
2023-04-16T06:30:57.119Z,100385.87
2023-04-16T06:32:01.603Z,100379.08
2023-04-16T06:33:06.236Z,100389.54
2023-04-16T06:34:09.075Z,100399.86
2023-04-16T06:35:11.686Z,100396.57
2023-04-16T06:36:14.404Z,100392.85
2023-04-16T06:37:17.119Z,100385.67
2023-04-16T06:38:19.227Z,100384.78
2023-04-16T06:39:21.923Z,100393.23
2023-04-16T06:40:24.796Z,100390.64
2023-04-16T06:41:28.056Z,100402.30
2023-04-16T06:42:32.326Z,100400.87
2023-04-16T06:43:34.563Z,100404.25
2023-04-16T06:44:36.813Z,100401.56
2023-04-16T06:45:39.034Z,100399.59
2023-04-16T06:46:41.936Z,100404.77
2023-04-16T06:47:45.515Z,100411.08
2023-04-16T06:48:47.801Z,100404.89
2023-04-16T06:49:49.976Z,100404.98
2023-04-16T06:50:52.418Z,100413.63
2023-04-16T06:51:54.705Z,100415.48
2023-04-16T06:52:57.177Z,100406.83
2023-04-16T06:53:59.484Z,100418.17
2023-04-16T06:55:02.154Z,100415.53
2023-04-16T06:56:05.820Z,100417.93
2023-04-16T06:57:08.053Z,100413.48
2023-04-16T06:58:10.476Z,100417.73
2023-04-16T06:59:13.729Z,100421.26
2023-04-16T07:00:17.211Z,100417.84
2023-04-16T07:01:19.855Z,100416.03
2023-04-16T07:02:23.272Z,100418.47
2023-04-16T07:03:27.076Z,100418.61
2023-04-16T07:04:30.674Z,100415.34
2023-04-16T07:05:33.621Z,100421.11
2023-04-16T07:06:35.913Z,100421.11
2023-04-16T07:07:38.044Z,100429.46
2023-04-16T07:08:40.173Z,100421.45
2023-04-16T07:09:42.835Z,100412.77
2023-04-16T07:10:45.590Z,100426.83
2023-04-16T07:11:48.904Z,100423.70
2023-04-16T07:12:52.552Z,100428.88
2023-04-16T07:13:55.156Z,100429.17
2023-04-16T07:14:57.708Z,100426.39
2023-04-16T07:16:00.025Z,100430.88
2023-04-16T07:17:02.975Z,100427.36
2023-04-16T07:18:05.226Z,100426.44
2023-04-16T07:19:08.319Z,100425.75
2023-04-16T07:20:12.098Z,100429.23
2023-04-16T07:21:14.972Z,100428.34
2023-04-16T07:22:17.629Z,100430.68
2023-04-16T07:23:20.396Z,100429.03
2023-04-16T07:24:22.620Z,100429.51
2023-04-16T07:25:25.453Z,100422.42
2023-04-16T07:26:27.889Z,100427.70
2023-04-16T07:27:30.212Z,100425.12
2023-04-16T07:28:32.908Z,100434.79
2023-04-16T07:29:35.239Z,100430.45
2023-04-16T07:30:39.658Z,100424.92
2023-04-16T07:31:43.158Z,100427.41
2023-04-16T07:32:46.107Z,100424.72
2023-04-16T07:33:49.025Z,100427.16
2023-04-16T07:34:52.629Z,100424.03
2023-04-16T07:35:54.921Z,100425.74
2023-04-16T07:36:57.227Z,100428.25
2023-04-16T07:37:59.462Z,100433.33
2023-04-16T07:39:01.685Z,100438.51
2023-04-16T07:40:04.899Z,100427.32
2023-04-16T07:41:07.634Z,100418.52
2023-04-16T07:42:10.590Z,100429.90
2023-04-16T07:43:14.880Z,100432.50
2023-04-16T07:44:17.200Z,100425.27
2023-04-16T07:45:22.530Z,100418.08
2023-04-16T07:46:30.464Z,100424.97
2023-04-16T07:47:30.097Z,100421.49
2023-04-16T07:48:32.376Z,100425.75
2023-04-16T07:49:34.750Z,100430.09
2023-04-16T07:50:37.257Z,100425.84
2023-04-16T07:51:41.648Z,100419.57
2023-04-16T07:52:45.838Z,100423.67
2023-04-16T07:53:50.027Z,100436.52
2023-04-16T07:54:52.737Z,100428.70
2023-04-16T07:55:56.855Z,100424.49
2023-04-16T07:56:59.561Z,100428.91
2023-04-16T07:58:07.926Z,100428.95
2023-04-16T07:59:22.098Z,100432.16
2023-04-16T08:00:15.470Z,100433.78
2023-04-16T08:01:17.899Z,100429.87
2023-04-16T08:02:20.445Z,100431.50
2023-04-16T08:03:23.112Z,100434.66
2023-04-16T08:04:26.466Z,100438.14
2023-04-16T08:05:29.120Z,100441.48
2023-04-16T08:06:31.752Z,100432.84
2023-04-16T08:07:34.943Z,100445.57
2023-04-16T08:08:39.658Z,100441.11
2023-04-16T08:09:49.281Z,100442.91
2023-04-16T08:10:53.615Z,100441.98
2023-04-16T08:11:55.939Z,100441.98
2023-04-16T08:13:01.057Z,100445.90
2023-04-16T08:14:03.458Z,100443.92
2023-04-16T08:15:07.011Z,100444.88
2023-04-16T08:16:09.649Z,100447.41
2023-04-16T08:17:13.333Z,100446.39
2023-04-16T08:18:15.677Z,100444.53
2023-04-16T08:19:18.212Z,100443.83
2023-04-16T08:20:20.694Z,100445.34
2023-04-16T08:21:23.040Z,100443.75
2023-04-16T08:22:26.261Z,100440.88
2023-04-16T08:23:29.919Z,100435.21
2023-04-16T08:24:32.349Z,100445.59
2023-04-16T08:25:39.404Z,100434.59
2023-04-16T08:26:42.388Z,100439.50
2023-04-16T08:27:44.815Z,100436.15
2023-04-16T08:28:47.063Z,100436.05
2023-04-16T08:29:49.341Z,100430.02
2023-04-16T08:30:51.932Z,100433.55
2023-04-16T08:31:55.097Z,100437.86
2023-04-16T08:32:57.686Z,100443.70
2023-04-16T08:34:00.706Z,100443.10
2023-04-16T08:35:03.250Z,100441.33
2023-04-16T08:36:07.889Z,100434.92
2023-04-16T08:37:10.700Z,100434.92
2023-04-16T08:38:14.189Z,100433.05
2023-04-16T08:39:16.558Z,100433.33
2023-04-16T08:40:19.923Z,100433.94
2023-04-16T08:41:25.872Z,100431.88
2023-04-16T08:42:35.982Z,100432.66
2023-04-16T08:43:41.003Z,100428.06
2023-04-16T08:44:49.318Z,100432.31
2023-04-16T08:45:56.363Z,100426.04
2023-04-16T08:47:00.912Z,100438.27
2023-04-16T08:48:05.665Z,100444.20
2023-04-16T08:49:08.759Z,100441.44
2023-04-16T08:50:15.887Z,100441.27
2023-04-16T08:51:21.607Z,100441.34
2023-04-16T08:52:27.166Z,100443.69
2023-04-16T08:53:43.073Z,100444.50
2023-04-16T08:54:57.292Z,100446.10
2023-04-16T08:56:05.404Z,100444.64
2023-04-16T08:57:11.355Z,100444.58
2023-04-16T08:59:27.680Z,100442.97
2023-04-16T09:00:33.294Z,100437.38
2023-04-16T09:01:38.407Z,100437.14
2023-04-16T09:02:40.898Z,100439.56
2023-04-16T09:03:46.504Z,100438.80
2023-04-16T09:04:50.727Z,100437.92
2023-04-16T09:05:55.591Z,100435.50
2023-04-16T09:06:59.087Z,100437.20
2023-04-16T09:08:02.500Z,100430.95
2023-04-16T09:09:07.429Z,100434.27
2023-04-16T09:10:11.603Z,100433.48
2023-04-16T09:11:16.100Z,100439.91
2023-04-16T09:12:19.937Z,100434.46
2023-04-16T09:13:23.424Z,100430.61
2023-04-16T09:14:26.436Z,100443.72
2023-04-16T09:15:29.568Z,100448.97
2023-04-16T09:16:34.554Z,100439.08
2023-04-16T09:17:37.043Z,100441.62
2023-04-16T09:18:41.551Z,100438.66
2023-04-16T09:20:57.541Z,100434.80
2023-04-16T09:21:59.932Z,100439.02
2023-04-16T09:23:03.210Z,100441.49
2023-04-16T09:24:06.152Z,100440.66
2023-04-16T09:25:09.303Z,100437.90
2023-04-16T09:26:13.086Z,100440.02
2023-04-16T09:27:16.671Z,100435.72
2023-04-16T09:28:48.151Z,100441.09
2023-04-16T09:29:56.242Z,100441.09
2023-04-16T09:31:15.014Z,100430.70
2023-04-16T09:32:17.804Z,100434.02
2023-04-16T09:33:23.266Z,100447.24
2023-04-16T09:34:26.541Z,100436.96
2023-04-16T09:35:49.255Z,100436.32
2023-04-16T09:36:52.767Z,100436.91
2023-04-16T09:37:57.568Z,100439.31
2023-04-16T09:39:01.379Z,100435.53
2023-04-16T09:40:05.517Z,100446.81
2023-04-16T09:41:08.585Z,100447.45
2023-04-16T09:42:11.457Z,100451.83
2023-04-16T09:43:19.000Z,100441.67
2023-04-16T09:44:25.521Z,100441.75
2023-04-16T09:45:31.487Z,100452.77
2023-04-16T09:46:35.721Z,100450.30
2023-04-16T09:47:40.735Z,100446.81
2023-04-16T09:48:45.593Z,100452.83
2023-04-16T09:49:49.995Z,100444.39
2023-04-16T09:50:54.057Z,100450.53
2023-04-16T09:51:56.590Z,100456.73
2023-04-16T09:53:03.080Z,100460.22
2023-04-16T09:54:06.742Z,100461.44
2023-04-16T09:55:08.942Z,100460.52
2023-04-16T09:56:13.259Z,100464.20
2023-04-16T09:57:22.790Z,100454.41
2023-04-16T09:58:25.753Z,100464.56
2023-04-16T09:59:29.845Z,100463.28
2023-04-16T10:00:32.548Z,100464.11
2023-04-16T10:01:37.326Z,100456.05
2023-04-16T10:02:41.747Z,100463.62
2023-04-16T10:03:48.179Z,100469.52
2023-04-16T10:04:52.892Z,100471.05
2023-04-16T10:05:56.346Z,100477.67
2023-04-16T10:07:06.316Z,100475.18
2023-04-16T10:08:13.364Z,100471.22
2023-04-16T10:09:16.541Z,100473.77
2023-04-16T10:10:19.280Z,100476.31
2023-04-16T10:11:21.579Z,100471.59
2023-04-16T10:12:24.005Z,100471.59
2023-04-16T10:13:28.297Z,100469.05
2023-04-16T10:14:30.804Z,100476.24
2023-04-16T10:15:33.813Z,100472.66
2023-04-16T10:16:38.609Z,100471.05
2023-04-16T10:17:41.822Z,100473.38
2023-04-16T10:18:46.100Z,100474.41
2023-04-16T10:19:49.406Z,100478.02
2023-04-16T10:20:52.690Z,100476.59
2023-04-16T10:21:57.105Z,100476.03
2023-04-16T10:23:02.571Z,100479.79
2023-04-16T10:24:06.126Z,100482.38
2023-04-16T10:25:10.889Z,100484.16
2023-04-16T10:26:13.742Z,100480.63
2023-04-16T10:27:16.638Z,100489.12
2023-04-16T10:28:19.380Z,100483.86
2023-04-16T10:29:23.705Z,100483.86
2023-04-16T10:30:29.346Z,100482.06
2023-04-16T10:31:32.787Z,100483.54
2023-04-16T10:32:38.114Z,100485.31
2023-04-16T10:33:42.113Z,100485.64
2023-04-16T10:34:46.136Z,100480.45
2023-04-16T10:36:01.375Z,100493.42
2023-04-16T10:36:55.494Z,100486.53
2023-04-16T10:37:59.362Z,100494.03
2023-04-16T10:39:01.838Z,100489.05
2023-04-16T10:41:26.251Z,100501.27
2023-04-16T10:42:28.630Z,100498.61
2023-04-16T10:43:33.533Z,100497.23
2023-04-16T10:44:37.041Z,100492.60
2023-04-16T10:45:39.909Z,100495.29
2023-04-16T10:46:45.937Z,100495.79
2023-04-16T10:47:48.988Z,100497.73
2023-04-16T10:48:54.050Z,100492.28
2023-04-16T10:49:58.652Z,100495.63
2023-04-16T10:51:01.141Z,100496.67
2023-04-16T10:52:17.851Z,100501.54
2023-04-16T10:53:27.406Z,100493.35
2023-04-16T10:54:31.073Z,100497.47
2023-04-16T10:55:37.040Z,100495.13
2023-04-16T10:56:40.915Z,100496.53
2023-04-16T10:57:43.208Z,100504.20
2023-04-16T10:58:45.575Z,100497.28
2023-04-16T10:59:49.033Z,100499.55
2023-04-16T11:00:51.882Z,100494.52
2023-04-16T11:01:56.999Z,100495.30
2023-04-16T11:03:01.864Z,100494.48
2023-04-16T11:04:25.633Z,100493.59
2023-04-16T11:05:31.897Z,100495.41
2023-04-16T11:06:34.992Z,100498.71
2023-04-16T11:07:39.217Z,100499.60
2023-04-16T11:08:54.145Z,100499.60
2023-04-16T11:10:00.297Z,100502.05
2023-04-16T11:11:05.544Z,100499.55
2023-04-16T11:12:11.141Z,100495.03
2023-04-16T11:13:14.046Z,100496.56
2023-04-16T11:14:16.850Z,100492.84
2023-04-16T11:15:19.505Z,100501.93
2023-04-16T11:16:22.119Z,100502.82
2023-04-16T11:17:32.863Z,100494.85
2023-04-16T11:18:35.934Z,100497.33
2023-04-16T11:19:43.729Z,100496.56
2023-04-16T11:20:46.343Z,100498.31
2023-04-16T11:21:51.383Z,100497.50
2023-04-16T11:22:55.502Z,100495.54
2023-04-16T11:23:57.707Z,100499.03
2023-04-16T11:25:00.560Z,100502.27
2023-04-16T11:26:02.847Z,100503.61
2023-04-16T11:27:05.664Z,100503.34
2023-04-16T11:28:07.997Z,100499.03
2023-04-16T11:29:17.589Z,100500.11
2023-04-16T11:30:29.823Z,100494.97
2023-04-16T11:31:32.276Z,100499.09
2023-04-16T11:32:35.717Z,100498.22
2023-04-16T11:33:38.860Z,100495.73
2023-04-16T11:34:46.560Z,100498.64
2023-04-16T11:36:01.392Z,100498.41
2023-04-16T11:37:03.868Z,100504.36
2023-04-16T11:38:06.754Z,100500.74
2023-04-16T11:39:10.166Z,100505.02
2023-04-16T11:40:13.353Z,100502.39
2023-04-16T11:41:21.554Z,100508.53
2023-04-16T11:42:23.833Z,100509.43
2023-04-16T11:43:26.607Z,100507.61
2023-04-16T11:44:29.147Z,100510.95
2023-04-16T11:45:31.383Z,100516.09
2023-04-16T11:46:41.273Z,100514.25
2023-04-16T11:47:49.792Z,100505.64
2023-04-16T11:48:55.059Z,100504.80
2023-04-16T11:50:01.198Z,100511.58
2023-04-16T11:51:03.587Z,100502.80
2023-04-16T11:52:06.907Z,100508.24
2023-04-16T11:53:09.374Z,100504.76
2023-04-16T11:54:22.801Z,100502.11
2023-04-16T11:55:25.818Z,100508.02
2023-04-16T11:56:30.237Z,100503.46
2023-04-16T11:57:33.119Z,100505.86
2023-04-16T11:58:35.351Z,100511.63
2023-04-16T11:59:37.495Z,100503.68
2023-04-16T12:00:42.885Z,100500.66
2023-04-16T12:01:51.460Z,100503.08
2023-04-16T12:02:57.190Z,100502.16
2023-04-16T12:04:02.632Z,100502.16
2023-04-16T12:05:08.811Z,100493.84
2023-04-16T12:06:11.460Z,100494.95
2023-04-16T12:07:15.078Z,100488.29
2023-04-16T12:08:29.226Z,100498.55
2023-04-16T12:09:32.016Z,100496.73
2023-04-16T12:10:54.594Z,100497.50